createdAt,value
2023-04-10T00:00:43.401Z,100.00
2023-04-10T00:03:12.997Z,100.00
2023-04-10T00:05:42.857Z,100.00
2023-04-10T00:08:12.478Z,100.00
2023-04-10T00:10:42.116Z,100.00
2023-04-10T00:13:11.757Z,100.00
2023-04-10T00:15:41.348Z,100.00
2023-04-10T00:18:11.252Z,100.00
2023-04-10T00:20:40.989Z,100.00
2023-04-10T00:23:10.705Z,100.00
2023-04-10T00:25:40.462Z,100.00
2023-04-10T00:28:10.121Z,100.00
2023-04-10T00:30:39.716Z,100.00
2023-04-10T00:33:09.370Z,100.00
2023-04-10T00:35:39.225Z,100.00
2023-04-10T00:38:08.850Z,100.00
2023-04-10T00:40:38.519Z,100.00
2023-04-10T00:43:08.179Z,100.00
2023-04-10T00:45:37.889Z,100.00
2023-04-10T00:48:07.515Z,100.00
2023-04-10T00:50:38.072Z,100.00
2023-04-10T00:53:07.633Z,100.00
2023-04-10T00:55:37.528Z,100.00
2023-04-10T00:58:07.288Z,100.00
2023-04-10T01:00:36.881Z,100.00
2023-04-10T01:03:06.271Z,100.00
2023-04-10T01:06:30.914Z,100.00
2023-04-10T01:09:40.905Z,100.00
2023-04-10T01:12:42.698Z,100.00
2023-04-10T01:15:18.075Z,100.00
2023-04-10T01:18:27.295Z,100.00
2023-04-10T01:20:58.152Z,100.00
2023-04-10T01:24:10.908Z,100.00
2023-04-10T01:27:23.690Z,100.00
2023-04-10T01:29:58.520Z,100.00
2023-04-10T01:32:32.141Z,100.00
2023-04-10T01:35:09.065Z,100.00
2023-04-10T01:37:44.520Z,100.00
2023-04-10T01:40:18.928Z,100.00
2023-04-10T01:42:57.777Z,100.00
2023-04-10T01:45:29.828Z,100.00
2023-04-10T01:47:59.615Z,100.00
2023-04-10T01:50:31.204Z,100.00
2023-04-10T01:53:04.076Z,100.00
2023-04-10T01:55:35.140Z,100.00
2023-04-10T01:58:05.201Z,100.00
2023-04-10T02:00:43.401Z,100.00
2023-04-10T02:03:12.878Z,100.00
2023-04-10T02:06:16.068Z,100.00
2023-04-10T02:08:57.798Z,100.00
2023-04-10T02:11:50.017Z,100.00
2023-04-10T02:14:23.389Z,100.00
2023-04-10T02:16:56.392Z,100.00
2023-04-10T02:19:28.243Z,100.00
2023-04-10T02:21:59.440Z,100.00
2023-04-10T02:24:29.193Z,100.00
2023-04-10T02:26:58.175Z,100.00
2023-04-10T02:29:27.031Z,100.00
2023-04-10T02:31:57.120Z,100.00
2023-04-10T02:34:26.246Z,100.00
2023-04-10T02:36:55.166Z,100.00
2023-04-10T02:39:23.982Z,100.00
2023-04-10T02:41:52.812Z,100.00
2023-04-10T02:44:21.705Z,100.00
2023-04-10T02:46:50.624Z,100.00
2023-04-10T02:49:19.421Z,100.00
2023-04-10T02:51:48.223Z,100.00
2023-04-10T02:54:16.111Z,100.00
2023-04-10T02:56:44.871Z,100.00
2023-04-10T02:59:14.508Z,100.00
2023-04-10T03:01:43.426Z,100.00
2023-04-10T03:04:12.362Z,100.00
2023-04-10T03:06:41.118Z,100.00
2023-04-10T03:09:09.895Z,100.00
2023-04-10T03:11:39.490Z,100.00
2023-04-10T03:14:12.430Z,100.00
2023-04-10T03:16:42.413Z,100.00
2023-04-10T03:19:12.993Z,100.00
2023-04-10T03:21:42.781Z,100.00
2023-04-10T03:24:12.496Z,100.00
2023-04-10T03:26:41.907Z,100.00
2023-04-10T03:29:10.708Z,100.00
2023-04-10T03:31:40.338Z,100.00
2023-04-10T03:34:09.915Z,100.00
2023-04-10T03:36:38.694Z,100.00
2023-04-10T03:39:07.495Z,100.00
2023-04-10T03:41:37.092Z,100.00
2023-04-10T03:44:06.676Z,100.00
2023-04-10T03:46:35.551Z,100.00
2023-04-10T03:49:04.430Z,100.00
2023-04-10T03:51:33.237Z,100.00
2023-04-10T03:54:02.853Z,100.00
2023-04-10T03:56:32.456Z,100.00
2023-04-10T03:59:02.002Z,100.00
2023-04-10T04:01:31.057Z,100.00
2023-04-10T04:04:00.550Z,100.00
2023-04-10T04:06:29.681Z,100.00
2023-04-10T04:08:58.805Z,100.00
2023-04-10T04:11:28.019Z,100.00
2023-04-10T04:13:57.679Z,100.00
2023-04-10T04:16:26.663Z,100.00
2023-04-10T04:18:56.004Z,100.00
2023-04-10T04:21:23.864Z,100.00
2023-04-10T04:23:52.896Z,100.00
2023-04-10T04:26:21.106Z,100.00
2023-04-10T04:28:49.900Z,100.00
2023-04-10T04:31:18.730Z,100.00
2023-04-10T04:33:47.511Z,100.00
2023-04-10T04:36:17.173Z,100.00
2023-04-10T04:38:46.118Z,100.00
2023-04-10T04:41:17.209Z,100.00
2023-04-10T04:43:47.738Z,100.00
2023-04-10T04:46:16.048Z,100.00
2023-04-10T04:48:44.897Z,100.00
2023-04-10T04:51:14.475Z,100.00
2023-04-10T04:53:43.247Z,99.10
2023-04-10T04:56:12.214Z,95.87
2023-04-10T04:58:41.073Z,94.67
2023-04-10T05:01:10.126Z,94.08
2023-04-10T05:03:39.180Z,92.42
2023-04-10T05:06:08.468Z,94.07
2023-04-10T05:08:37.263Z,92.46
2023-04-10T05:11:06.609Z,91.86
2023-04-10T05:13:35.617Z,92.38
2023-04-10T05:16:04.563Z,93.07
2023-04-10T05:18:33.371Z,92.55
2023-04-10T05:21:02.310Z,91.46
2023-04-10T05:23:31.838Z,91.77
2023-04-10T05:26:00.522Z,91.27
2023-04-10T05:28:28.341Z,88.90
2023-04-10T05:30:57.112Z,85.08
2023-04-10T05:33:26.706Z,87.34
2023-04-10T05:35:56.894Z,89.30
2023-04-10T05:38:26.527Z,86.74
2023-04-10T05:40:56.296Z,85.82
2023-04-10T05:43:25.031Z,83.81
2023-04-10T05:45:52.865Z,81.76
2023-04-10T05:48:22.277Z,81.68
2023-04-10T05:50:51.016Z,84.99
2023-04-10T05:53:21.933Z,84.50
2023-04-10T05:55:51.944Z,84.82
2023-04-10T05:58:21.491Z,80.84
2023-04-10T06:00:50.245Z,81.30
2023-04-10T06:03:20.324Z,82.46
2023-04-10T06:05:49.299Z,78.30
2023-04-10T06:08:19.792Z,78.94
2023-04-10T06:10:48.651Z,76.21
2023-04-10T06:13:18.290Z,72.63
2023-04-10T06:15:47.053Z,75.46
2023-04-10T06:18:15.911Z,74.72
2023-04-10T06:20:44.672Z,73.68
2023-04-10T06:23:14.627Z,66.58
2023-04-10T06:25:43.857Z,63.10
2023-04-10T06:28:12.566Z,61.83
2023-04-10T06:30:41.372Z,58.81
2023-04-10T06:33:10.126Z,52.98
2023-04-10T06:35:39.938Z,50.38
2023-04-10T06:38:08.904Z,47.52
2023-04-10T06:40:37.770Z,45.83
2023-04-10T06:43:06.284Z,41.24
2023-04-10T06:45:35.068Z,40.43
2023-04-10T06:48:05.560Z,40.81
2023-04-10T06:50:34.357Z,39.61
2023-04-10T06:53:03.282Z,39.36
2023-04-10T06:55:32.060Z,39.95
2023-04-10T06:58:01.052Z,38.65
2023-04-10T07:00:30.852Z,35.12
2023-04-10T07:02:59.593Z,37.10
2023-04-10T07:05:28.352Z,34.04
2023-04-10T07:07:57.031Z,35.29
2023-04-10T07:10:26.110Z,34.56
2023-04-10T07:12:54.910Z,36.83
2023-04-10T07:15:24.692Z,35.77
2023-04-10T07:17:53.489Z,32.96
2023-04-10T07:20:22.162Z,32.42
2023-04-10T07:22:50.912Z,32.95
2023-04-10T07:25:19.760Z,37.75
2023-04-10T07:27:48.421Z,36.54
2023-04-10T07:30:17.167Z,45.53
2023-04-10T07:32:46.899Z,46.93
2023-04-10T07:35:15.822Z,50.53
2023-04-10T07:37:44.601Z,48.32
2023-04-10T07:40:14.209Z,48.27
2023-04-10T07:42:42.927Z,47.98
2023-04-10T07:45:12.532Z,48.54
2023-04-10T07:47:42.114Z,46.22
2023-04-10T07:50:11.442Z,48.28
2023-04-10T07:52:41.146Z,46.53
2023-04-10T07:55:10.758Z,45.79
2023-04-10T07:57:42.131Z,46.17
2023-04-10T08:00:12.379Z,46.41
2023-04-10T08:02:41.654Z,49.48
2023-04-10T08:05:11.245Z,48.94
2023-04-10T08:07:39.151Z,49.32
2023-04-10T08:10:09.536Z,48.79
2023-04-10T08:12:38.234Z,48.92
2023-04-10T08:15:08.577Z,45.09
2023-04-10T08:17:37.333Z,46.04
2023-04-10T08:20:07.512Z,45.59
2023-04-10T08:22:36.209Z,46.07
2023-04-10T08:25:06.410Z,44.35
2023-04-10T08:27:35.190Z,42.02
2023-04-10T08:30:04.608Z,42.17
2023-04-10T08:32:33.473Z,40.94
2023-04-10T08:35:02.226Z,44.54
2023-04-10T08:37:31.081Z,45.69
2023-04-10T08:39:59.775Z,43.65
2023-04-10T08:42:28.541Z,42.48
2023-04-10T08:44:56.401Z,41.81
2023-04-10T08:47:29.273Z,42.84
2023-04-10T08:50:04.828Z,44.32
2023-04-10T08:52:36.581Z,41.88
2023-04-10T08:55:10.142Z,42.47
2023-04-10T08:57:42.868Z,44.55
2023-04-10T09:03:15.383Z,45.80
2023-04-10T09:05:44.391Z,45.68
2023-04-10T09:08:16.057Z,45.70
2023-04-10T09:10:44.722Z,44.17
2023-04-10T09:13:13.477Z,45.93
2023-04-10T09:15:59.483Z,45.24
2023-04-10T09:18:51.815Z,45.44
2023-04-10T09:21:22.826Z,44.71
2023-04-10T09:24:02.150Z,45.68
2023-04-10T09:26:34.451Z,46.20
2023-04-10T09:29:11.203Z,45.95
2023-04-10T09:31:40.672Z,46.05
2023-04-10T09:34:21.801Z,46.66
2023-04-10T09:37:01.539Z,47.17
2023-04-10T09:39:46.106Z,46.01
2023-04-10T09:42:15.451Z,46.82
2023-04-10T09:44:45.111Z,47.73
2023-04-10T09:47:14.493Z,47.46
2023-04-10T09:50:00.525Z,46.79
2023-04-10T09:52:35.739Z,48.35
2023-04-10T09:55:10.106Z,49.76
2023-04-10T09:57:38.823Z,49.58
2023-04-10T10:00:09.712Z,49.00
2023-04-10T10:02:39.511Z,46.93
2023-04-10T10:05:10.710Z,47.88
2023-04-10T10:07:40.256Z,45.69
2023-04-10T10:10:09.492Z,45.40
2023-04-10T10:12:55.637Z,44.72
2023-04-10T10:15:44.397Z,45.25
2023-04-10T10:18:31.243Z,45.75
2023-04-10T10:21:01.583Z,45.74
2023-04-10T10:23:34.664Z,43.53
2023-04-10T10:26:07.093Z,43.71
2023-04-10T10:28:37.577Z,42.74
2023-04-10T10:31:07.262Z,43.98
2023-04-10T10:33:37.371Z,43.56
2023-04-10T10:36:06.762Z,44.86
2023-04-10T10:38:40.202Z,44.07
2023-04-10T10:41:52.168Z,44.61
2023-04-10T10:44:35.178Z,44.62
2023-04-10T10:47:27.636Z,44.43
2023-04-10T10:50:04.700Z,46.75
2023-04-10T10:52:53.184Z,47.47
2023-04-10T10:55:24.356Z,49.05
2023-04-10T10:58:05.242Z,48.97
2023-04-10T11:00:52.257Z,49.75
2023-04-10T11:03:22.829Z,50.64
2023-04-10T11:06:03.269Z,50.81
2023-04-10T11:08:47.525Z,51.56
2023-04-10T11:11:23.801Z,51.15
2023-04-10T11:13:56.518Z,51.01
2023-04-10T11:16:45.670Z,51.25
2023-04-10T11:19:16.388Z,51.76
2023-04-10T11:22:09.264Z,51.77
2023-04-10T11:24:59.663Z,52.03
2023-04-10T11:27:48.713Z,52.25
2023-04-10T11:30:36.228Z,53.42
2023-04-10T11:33:06.730Z,53.33
2023-04-10T11:35:35.733Z,52.93
2023-04-10T11:38:17.308Z,54.44
2023-04-10T11:40:59.511Z,56.15
2023-04-10T11:43:29.382Z,58.78
2023-04-10T11:46:05.578Z,57.71
2023-04-10T11:48:35.415Z,59.51
2023-04-10T11:51:11.097Z,60.59
2023-04-10T11:53:41.473Z,59.79
2023-04-10T11:56:23.962Z,59.39
2023-04-10T11:58:54.977Z,58.38
2023-04-10T12:01:24.919Z,57.81
2023-04-10T12:03:54.011Z,57.86
2023-04-10T12:06:24.924Z,58.10
2023-04-10T12:08:55.005Z,55.89
2023-04-10T12:11:29.003Z,57.54
2023-04-10T12:13:59.683Z,57.44
2023-04-10T12:16:29.332Z,57.58
2023-04-10T12:18:58.681Z,57.11
2023-04-10T12:21:27.687Z,58.54
2023-04-10T12:23:56.343Z,56.79
2023-04-10T12:26:26.201Z,57.46
2023-04-10T12:28:58.126Z,58.12
2023-04-10T12:31:37.300Z,58.04
2023-04-10T12:34:08.498Z,58.50
2023-04-10T12:36:39.371Z,60.34
2023-04-10T12:39:24.698Z,59.65
2023-04-10T12:41:53.490Z,60.45
2023-04-10T12:44:23.196Z,58.78
2023-04-10T12:47:03.987Z,57.92
2023-04-10T12:49:32.668Z,58.31
2023-04-10T12:52:01.631Z,56.06
2023-04-10T12:54:37.641Z,57.67
2023-04-10T12:57:07.269Z,56.16
2023-04-10T12:59:36.231Z,56.21
2023-04-10T13:02:06.029Z,57.38
2023-04-10T13:04:34.844Z,55.24
2023-04-10T13:07:03.223Z,54.64
2023-04-10T13:09:32.015Z,54.76
2023-04-10T13:12:01.884Z,51.66
2023-04-10T13:14:30.796Z,52.94
2023-04-10T13:16:59.462Z,53.08
2023-04-10T13:19:28.137Z,53.90
2023-04-10T13:21:56.904Z,51.30
2023-04-10T13:24:24.689Z,53.23
2023-04-10T13:26:54.333Z,52.17
2023-04-10T13:29:23.079Z,52.31
2023-04-10T13:31:51.998Z,51.76
2023-04-10T13:34:21.463Z,51.95
2023-04-10T13:36:50.332Z,52.00
2023-04-10T13:39:19.061Z,52.27
2023-04-10T13:41:47.763Z,51.58
2023-04-10T13:44:16.502Z,52.18
2023-04-10T13:46:45.412Z,51.44
2023-04-10T13:49:19.418Z,51.70
2023-04-10T13:51:48.611Z,50.21
2023-04-10T13:54:17.603Z,51.80
2023-04-10T13:56:46.727Z,51.90
2023-04-10T13:59:16.523Z,51.01
2023-04-10T14:01:45.283Z,50.25
2023-04-10T14:04:14.101Z,50.40
2023-04-10T14:06:43.608Z,50.74
2023-04-10T14:09:12.375Z,50.51
2023-04-10T14:11:41.121Z,50.18
2023-04-10T14:14:09.837Z,49.89
2023-04-10T14:16:38.509Z,50.33
2023-04-10T14:19:07.343Z,49.60
2023-04-10T14:21:35.258Z,49.68
2023-04-10T14:24:04.009Z,50.10
2023-04-10T14:26:32.717Z,49.97
2023-04-10T14:29:01.364Z,49.40
2023-04-10T14:31:30.101Z,48.83
2023-04-10T14:33:57.884Z,49.88
2023-04-10T14:36:28.061Z,49.63
2023-04-10T14:38:56.711Z,50.39
2023-04-10T14:41:25.471Z,49.38
2023-04-10T14:43:53.438Z,50.08
2023-04-10T14:46:22.172Z,47.66
2023-04-10T14:48:50.847Z,48.21
2023-04-10T14:51:19.898Z,47.58
2023-04-10T14:53:48.593Z,48.16
2023-04-10T14:56:17.885Z,46.38
2023-04-10T14:58:50.110Z,46.69
2023-04-10T15:01:20.327Z,47.16
2023-04-10T15:03:49.356Z,47.19
2023-04-10T15:06:18.058Z,46.58
2023-04-10T15:08:46.945Z,48.51
2023-04-10T15:11:15.768Z,48.48
2023-04-10T15:13:44.405Z,48.23
2023-04-10T15:16:13.230Z,47.23
2023-04-10T15:18:42.336Z,47.14
2023-04-10T15:21:10.121Z,47.49
2023-04-10T15:23:38.787Z,48.05
2023-04-10T15:26:14.197Z,46.66
2023-04-10T15:28:44.025Z,46.92
2023-04-10T15:31:12.952Z,45.87
2023-04-10T15:33:42.537Z,45.98
2023-04-10T15:36:11.506Z,45.18
2023-04-10T15:38:40.272Z,45.62
2023-04-10T15:41:13.612Z,45.16
2023-04-10T15:43:42.973Z,45.39
2023-04-10T15:46:11.828Z,45.85
2023-04-10T15:48:40.647Z,44.71
2023-04-10T15:51:09.347Z,45.41
2023-04-10T15:53:38.205Z,44.59
2023-04-10T15:56:08.691Z,44.52
2023-04-10T15:58:37.348Z,44.55
2023-04-10T16:01:06.592Z,45.20
2023-04-10T16:03:35.483Z,45.06
2023-04-10T16:06:04.478Z,44.85
2023-04-10T16:08:33.253Z,44.75
2023-04-10T16:11:02.311Z,45.77
2023-04-10T16:13:31.144Z,45.63
2023-04-10T16:16:00.026Z,45.44
2023-04-10T16:18:31.529Z,46.27
2023-04-10T16:21:00.237Z,46.00
2023-04-10T16:23:28.937Z,46.34
2023-04-10T16:25:56.766Z,46.22
2023-04-10T16:28:26.351Z,49.89
2023-04-10T16:30:57.094Z,58.19
2023-04-10T16:33:26.601Z,62.02
2023-04-10T16:35:58.102Z,66.93
2023-04-10T16:38:26.648Z,70.20
2023-04-10T16:40:55.289Z,73.40
2023-04-10T16:43:24.845Z,75.56
2023-04-10T16:46:10.872Z,77.91
2023-04-10T16:48:39.314Z,79.96
2023-04-10T16:51:26.365Z,83.68
2023-04-10T16:53:54.292Z,88.27
2023-04-10T16:56:23.019Z,92.18
2023-04-10T16:58:52.108Z,95.02
2023-04-10T17:01:27.443Z,95.16
2023-04-10T17:03:56.689Z,98.11
2023-04-10T17:06:25.995Z,97.39
2023-04-10T17:08:54.868Z,97.22
2023-04-10T17:11:24.676Z,97.88
2023-04-10T17:13:54.286Z,95.92
2023-04-10T17:16:24.018Z,96.35
2023-04-10T17:18:53.115Z,96.71
2023-04-10T17:21:22.929Z,97.84
2023-04-10T17:23:52.522Z,98.01
2023-04-10T17:26:23.699Z,100.00
2023-04-10T17:28:53.685Z,100.00
2023-04-10T17:31:23.023Z,100.00
2023-04-10T17:33:51.770Z,100.00
2023-04-10T17:36:21.607Z,100.00
2023-04-10T17:38:54.035Z,100.00
2023-04-10T17:41:23.069Z,100.00
2023-04-10T17:43:52.632Z,100.00
2023-04-10T17:46:21.354Z,100.00
2023-04-10T17:48:50.064Z,100.00
2023-04-10T17:51:18.850Z,100.00
2023-04-10T17:53:47.620Z,100.00
2023-04-10T17:56:20.028Z,99.50
2023-04-10T17:58:49.762Z,99.33
2023-04-10T18:01:26.030Z,100.00
2023-04-10T18:03:55.128Z,100.00
2023-04-10T18:06:24.269Z,100.00
2023-04-10T18:08:54.208Z,100.00
2023-04-10T18:11:24.267Z,100.00
2023-04-10T18:13:53.072Z,100.00
2023-04-10T18:16:21.924Z,100.00
2023-04-10T18:18:50.828Z,100.00
2023-04-10T18:21:21.668Z,100.00
2023-04-10T18:23:51.319Z,100.00
2023-04-10T18:26:21.143Z,100.00
2023-04-10T18:28:49.901Z,100.00
2023-04-10T18:31:20.151Z,100.00
2023-04-10T18:34:03.627Z,98.94
2023-04-10T18:36:35.768Z,98.26
2023-04-10T18:39:05.423Z,98.66
2023-04-10T18:41:35.457Z,99.69
2023-04-10T18:44:06.277Z,100.00
2023-04-10T18:46:38.262Z,100.00
2023-04-10T18:49:07.908Z,100.00
2023-04-10T18:51:38.468Z,100.00
2023-04-10T18:54:08.609Z,100.00
2023-04-10T18:56:38.493Z,100.00
2023-04-10T18:59:08.140Z,100.00
2023-04-10T19:01:39.951Z,100.00
2023-04-10T19:04:08.943Z,100.00
2023-04-10T19:06:41.154Z,100.00
2023-04-10T19:09:13.910Z,100.00
2023-04-10T19:11:44.244Z,100.00
2023-04-10T19:14:13.993Z,100.00
2023-04-10T19:16:43.589Z,100.00
2023-04-10T19:19:13.053Z,100.00
2023-04-10T19:21:42.630Z,100.00
2023-04-10T19:24:11.830Z,100.00
2023-04-10T19:26:41.521Z,100.00
2023-04-10T19:29:11.288Z,100.00
2023-04-10T19:31:40.258Z,100.00
2023-04-10T19:34:11.550Z,100.00
2023-04-10T19:36:41.988Z,100.00
2023-04-10T19:39:11.481Z,100.00
2023-04-10T19:41:42.522Z,100.00
2023-04-10T19:44:12.187Z,100.00
2023-04-10T19:46:42.474Z,100.00
2023-04-10T19:49:13.326Z,100.00
2023-04-10T19:51:44.361Z,100.00
2023-04-10T19:54:14.125Z,100.00
2023-04-10T19:56:43.816Z,100.00
2023-04-10T19:59:13.466Z,100.00
2023-04-10T20:01:43.163Z,100.00
2023-04-10T20:04:12.929Z,100.00
2023-04-10T20:06:44.304Z,100.00
2023-04-10T20:09:17.006Z,100.00
2023-04-10T20:11:46.605Z,100.00
2023-04-10T20:14:15.549Z,100.00
2023-04-10T20:16:46.508Z,100.00
2023-04-10T20:19:16.260Z,100.00
2023-04-10T20:21:45.850Z,100.00
2023-04-10T20:24:15.463Z,100.00
2023-04-10T20:26:46.230Z,100.00
2023-04-10T20:29:15.985Z,100.00
2023-04-10T20:31:45.744Z,100.00
2023-04-10T20:34:15.539Z,100.00
2023-04-10T20:36:45.100Z,100.00
2023-04-10T20:39:14.695Z,100.00
2023-04-10T20:41:44.367Z,100.00
2023-04-10T20:44:13.974Z,100.00
2023-04-10T20:46:43.659Z,100.00
2023-04-10T20:49:16.030Z,100.00
2023-04-10T20:51:45.826Z,100.00
2023-04-10T20:54:15.564Z,100.00
2023-04-10T20:56:45.612Z,100.00
2023-04-10T20:59:15.212Z,100.00
2023-04-10T21:01:44.975Z,100.00
2023-04-10T21:04:15.065Z,100.00
2023-04-10T21:06:44.684Z,100.00
2023-04-10T21:09:14.338Z,100.00
2023-04-10T21:11:43.946Z,100.00
2023-04-10T21:14:16.578Z,100.00
2023-04-10T21:16:46.361Z,100.00
2023-04-10T21:19:16.090Z,100.00
2023-04-10T21:21:45.745Z,100.00
2023-04-10T21:24:15.531Z,100.00
2023-04-10T21:26:45.086Z,100.00
2023-04-10T21:29:14.770Z,100.00
2023-04-10T21:31:44.539Z,100.00
2023-04-10T21:34:14.171Z,100.00
2023-04-10T21:36:43.720Z,100.00
2023-04-10T21:39:13.345Z,100.00
2023-04-10T21:41:42.962Z,100.00
2023-04-10T21:44:12.593Z,100.00
2023-04-10T21:46:42.287Z,100.00
2023-04-10T21:49:11.673Z,100.00
2023-04-10T21:51:41.334Z,100.00
2023-04-10T21:54:10.888Z,100.00
2023-04-10T21:56:41.588Z,100.00
2023-04-10T21:59:11.268Z,100.00
2023-04-10T22:01:41.894Z,100.00
2023-04-10T22:04:11.998Z,100.00
2023-04-10T22:06:41.837Z,100.00
2023-04-10T22:09:11.568Z,100.00
2023-04-10T22:11:41.542Z,100.00
2023-04-10T22:14:16.948Z,100.00
2023-04-10T22:16:48.484Z,100.00
2023-04-10T22:19:18.052Z,100.00
2023-04-10T22:21:47.632Z,100.00
2023-04-10T22:24:17.178Z,100.00
2023-04-10T22:26:46.712Z,100.00
2023-04-10T22:29:16.525Z,100.00
2023-04-10T22:31:46.266Z,100.00
2023-04-10T22:34:15.968Z,100.00
2023-04-10T22:36:45.596Z,100.00
2023-04-10T22:39:15.385Z,100.00
2023-04-10T22:41:44.361Z,100.00
2023-04-10T22:44:14.055Z,100.00
2023-04-10T22:46:43.675Z,100.00
2023-04-10T22:49:17.167Z,100.00
2023-04-10T22:51:46.710Z,100.00
2023-04-10T22:54:16.405Z,100.00
2023-04-10T22:56:45.960Z,100.00
2023-04-10T22:59:15.840Z,100.00
2023-04-10T23:01:45.482Z,100.00
2023-04-10T23:04:15.175Z,100.00
2023-04-10T23:06:44.794Z,100.00
2023-04-10T23:09:14.385Z,100.00
2023-04-10T23:11:43.413Z,100.00
2023-04-10T23:14:12.110Z,100.00
2023-04-10T23:16:41.913Z,100.00
2023-04-10T23:19:11.570Z,100.00
2023-04-10T23:21:40.794Z,100.00
2023-04-10T23:24:09.574Z,100.00
2023-04-10T23:26:38.369Z,100.00
2023-04-10T23:29:07.955Z,100.00
2023-04-10T23:31:36.791Z,100.00
2023-04-10T23:34:06.345Z,100.00
2023-04-10T23:36:35.923Z,100.00
2023-04-10T23:39:04.803Z,100.00
2023-04-10T23:41:34.364Z,100.00
2023-04-10T23:44:03.967Z,100.00
2023-04-10T23:46:33.526Z,100.00
2023-04-10T23:49:03.181Z,100.00
2023-04-10T23:51:33.180Z,100.00
2023-04-10T23:54:02.715Z,100.00
2023-04-10T23:56:31.557Z,100.00
2023-04-10T23:59:01.168Z,100.00
